sensor_id;sensor_type;location;lat;lon;timestamp;P1;durP1;ratioP1;P2;durP2;ratioP2
14394;SDS011;7282;49.204;10.652;2023-07-16T00:01:22;11.30;;;10.20;;
14394;SDS011;7282;49.204;10.652;2023-07-16T00:03:49;11.17;;;10.07;;
14394;SDS011;7282;49.204;10.652;2023-07-16T00:06:16;10.60;;;9.33;;
14394;SDS011;7282;49.204;10.652;2023-07-16T00:08:42;9.97;;;8.90;;
14394;SDS011;7282;49.204;10.652;2023-07-16T00:11:09;8.63;;;7.83;;
14394;SDS011;7282;49.204;10.652;2023-07-16T00:13:36;13.47;;;10.60;;
14394;SDS011;7282;49.204;10.652;2023-07-16T00:16:03;10.30;;;9.23;;
14394;SDS011;7282;49.204;10.652;2023-07-16T00:18:30;11.77;;;10.57;;
14394;SDS011;7282;49.204;10.652;2023-07-16T00:20:57;11.97;;;10.77;;
14394;SDS011;7282;49.204;10.652;2023-07-16T00:23:24;13.20;;;11.03;;
14394;SDS011;7282;49.204;10.652;2023-07-16T00:25:50;10.97;;;9.90;;
14394;SDS011;7282;49.204;10.652;2023-07-16T00:28:17;10.87;;;9.77;;
14394;SDS011;7282;49.204;10.652;2023-07-16T00:30:44;10.93;;;9.70;;
14394;SDS011;7282;49.204;10.652;2023-07-16T00:33:10;11.57;;;10.47;;
14394;SDS011;7282;49.204;10.652;2023-07-16T00:35:37;10.63;;;9.47;;
14394;SDS011;7282;49.204;10.652;2023-07-16T00:38:04;11.63;;;10.53;;
14394;SDS011;7282;49.204;10.652;2023-07-16T00:40:31;10.40;;;9.30;;
14394;SDS011;7282;49.204;10.652;2023-07-16T00:42:57;12.57;;;10.50;;
14394;SDS011;7282;49.204;10.652;2023-07-16T00:45:24;11.83;;;9.60;;
14394;SDS011;7282;49.204;10.652;2023-07-16T00:47:51;8.70;;;7.77;;
14394;SDS011;7282;49.204;10.652;2023-07-16T00:50:17;9.73;;;8.03;;
14394;SDS011;7282;49.204;10.652;2023-07-16T00:52:44;9.10;;;7.90;;
14394;SDS011;7282;49.204;10.652;2023-07-16T00:55:11;9.43;;;7.03;;
14394;SDS011;7282;49.204;10.652;2023-07-16T00:57:38;7.93;;;6.83;;
14394;SDS011;7282;49.204;10.652;2023-07-16T01:00:06;6.73;;;5.93;;
14394;SDS011;7282;49.204;10.652;2023-07-16T01:02:33;6.00;;;5.40;;
14394;SDS011;7282;49.204;10.652;2023-07-16T01:05:00;5.63;;;5.13;;
14394;SDS011;7282;49.204;10.652;2023-07-16T01:07:27;6.23;;;5.57;;
14394;SDS011;7282;49.204;10.652;2023-07-16T01:09:55;6.00;;;5.07;;
14394;SDS011;7282;49.204;10.652;2023-07-16T01:12:22;5.63;;;5.10;;
14394;SDS011;7282;49.204;10.652;2023-07-16T01:14:50;5.77;;;4.83;;
14394;SDS011;7282;49.204;10.652;2023-07-16T01:17:18;5.53;;;4.90;;
14394;SDS011;7282;49.204;10.652;2023-07-16T01:19:44;5.73;;;5.00;;
14394;SDS011;7282;49.204;10.652;2023-07-16T01:27:59;7.07;;;4.63;;
14394;SDS011;7282;49.204;10.652;2023-07-16T01:30:21;4.77;;;4.20;;
14394;SDS011;7282;49.204;10.652;2023-07-16T01:32:47;5.43;;;4.50;;
14394;SDS011;7282;49.204;10.652;2023-07-16T01:35:14;4.90;;;4.50;;
14394;SDS011;7282;49.204;10.652;2023-07-16T01:37:41;4.73;;;4.30;;
14394;SDS011;7282;49.204;10.652;2023-07-16T01:40:08;5.23;;;4.70;;
14394;SDS011;7282;49.204;10.652;2023-07-16T01:42:35;7.73;;;5.47;;
14394;SDS011;7282;49.204;10.652;2023-07-16T01:45:02;5.17;;;4.07;;
14394;SDS011;7282;49.204;10.652;2023-07-16T01:49:57;5.53;;;4.50;;
14394;SDS011;7282;49.204;10.652;2023-07-16T01:52:24;4.63;;;4.23;;
14394;SDS011;7282;49.204;10.652;2023-07-16T01:54:51;6.20;;;4.10;;
14394;SDS011;7282;49.204;10.652;2023-07-16T01:57:17;4.80;;;3.90;;
14394;SDS011;7282;49.204;10.652;2023-07-16T01:59:44;5.23;;;4.40;;
14394;SDS011;7282;49.204;10.652;2023-07-16T02:02:12;4.57;;;3.93;;
14394;SDS011;7282;49.204;10.652;2023-07-16T02:04:38;4.67;;;4.27;;
14394;SDS011;7282;49.204;10.652;2023-07-16T02:07:05;4.10;;;3.70;;
14394;SDS011;7282;49.204;10.652;2023-07-16T02:09:33;4.17;;;3.50;;
14394;SDS011;7282;49.204;10.652;2023-07-16T02:12:01;4.53;;;3.50;;
14394;SDS011;7282;49.204;10.652;2023-07-16T02:14:28;5.07;;;3.87;;
14394;SDS011;7282;49.204;10.652;2023-07-16T02:16:55;5.53;;;4.00;;
14394;SDS011;7282;49.204;10.652;2023-07-16T02:19:22;4.63;;;4.07;;
14394;SDS011;7282;49.204;10.652;2023-07-16T02:21:49;4.23;;;3.80;;
14394;SDS011;7282;49.204;10.652;2023-07-16T02:24:16;3.83;;;3.43;;
14394;SDS011;7282;49.204;10.652;2023-07-16T02:26:42;5.10;;;3.60;;
14394;SDS011;7282;49.204;10.652;2023-07-16T02:29:09;4.43;;;3.70;;
14394;SDS011;7282;49.204;10.652;2023-07-16T02:31:36;4.40;;;3.77;;
14394;SDS011;7282;49.204;10.652;2023-07-16T02:34:03;3.30;;;3.03;;
14394;SDS011;7282;49.204;10.652;2023-07-16T02:36:29;3.63;;;3.30;;
14394;SDS011;7282;49.204;10.652;2023-07-16T02:38:56;3.90;;;3.50;;
14394;SDS011;7282;49.204;10.652;2023-07-16T02:41:23;3.90;;;3.20;;
14394;SDS011;7282;49.204;10.652;2023-07-16T02:43:58;3.50;;;3.13;;
14394;SDS011;7282;49.204;10.652;2023-07-16T02:46:18;4.10;;;3.63;;
14394;SDS011;7282;49.204;10.652;2023-07-16T02:48:44;3.90;;;3.23;;
14394;SDS011;7282;49.204;10.652;2023-07-16T02:51:11;3.40;;;3.10;;
14394;SDS011;7282;49.204;10.652;2023-07-16T02:53:38;4.00;;;3.60;;
14394;SDS011;7282;49.204;10.652;2023-07-16T02:56:05;3.47;;;3.10;;
14394;SDS011;7282;49.204;10.652;2023-07-16T02:58:31;3.60;;;3.30;;
14394;SDS011;7282;49.204;10.652;2023-07-16T03:00:58;3.93;;;3.27;;
14394;SDS011;7282;49.204;10.652;2023-07-16T03:03:25;3.93;;;3.23;;
14394;SDS011;7282;49.204;10.652;2023-07-16T03:05:51;4.53;;;3.43;;
14394;SDS011;7282;49.204;10.652;2023-07-16T03:08:18;3.57;;;3.27;;
14394;SDS011;7282;49.204;10.652;2023-07-16T03:10:45;4.23;;;3.83;;
14394;SDS011;7282;49.204;10.652;2023-07-16T03:13:12;3.80;;;3.40;;
14394;SDS011;7282;49.204;10.652;2023-07-16T03:15:39;3.87;;;3.57;;
14394;SDS011;7282;49.204;10.652;2023-07-16T03:18:05;4.33;;;3.93;;
14394;SDS011;7282;49.204;10.652;2023-07-16T03:20:32;4.20;;;3.80;;
14394;SDS011;7282;49.204;10.652;2023-07-16T03:22:59;3.70;;;3.30;;
14394;SDS011;7282;49.204;10.652;2023-07-16T03:25:25;3.53;;;3.23;;
14394;SDS011;7282;49.204;10.652;2023-07-16T03:27:52;4.40;;;4.00;;
14394;SDS011;7282;49.204;10.652;2023-07-16T03:30:19;4.67;;;3.47;;
14394;SDS011;7282;49.204;10.652;2023-07-16T03:32:45;3.40;;;3.03;;
14394;SDS011;7282;49.204;10.652;2023-07-16T03:35:12;4.20;;;2.80;;
14394;SDS011;7282;49.204;10.652;2023-07-16T03:37:39;2.70;;;2.40;;
14394;SDS011;7282;49.204;10.652;2023-07-16T03:40:16;3.40;;;2.47;;
14394;SDS011;7282;49.204;10.652;2023-07-16T03:42:40;3.30;;;2.87;;
14394;SDS011;7282;49.204;10.652;2023-07-16T03:45:07;3.03;;;2.73;;
14394;SDS011;7282;49.204;10.652;2023-07-16T03:47:35;2.87;;;2.50;;
14394;SDS011;7282;49.204;10.652;2023-07-16T03:50:02;3.70;;;2.93;;
14394;SDS011;7282;49.204;10.652;2023-07-16T03:52:28;3.20;;;2.53;;
14394;SDS011;7282;49.204;10.652;2023-07-16T03:54:55;4.27;;;2.53;;
14394;SDS011;7282;49.204;10.652;2023-07-16T03:57:22;3.00;;;2.63;;
14394;SDS011;7282;49.204;10.652;2023-07-16T03:59:48;3.00;;;2.43;;
14394;SDS011;7282;49.204;10.652;2023-07-16T04:02:15;2.87;;;2.67;;
14394;SDS011;7282;49.204;10.652;2023-07-16T04:04:42;2.90;;;2.50;;
14394;SDS011;7282;49.204;10.652;2023-07-16T04:07:08;4.57;;;2.77;;
14394;SDS011;7282;49.204;10.652;2023-07-16T04:09:38;2.93;;;2.60;;
14394;SDS011;7282;49.204;10.652;2023-07-16T04:12:05;2.93;;;2.63;;
14394;SDS011;7282;49.204;10.652;2023-07-16T04:14:32;3.50;;;2.83;;
14394;SDS011;7282;49.204;10.652;2023-07-16T04:16:59;4.93;;;2.80;;
14394;SDS011;7282;49.204;10.652;2023-07-16T04:19:26;2.80;;;2.60;;
14394;SDS011;7282;49.204;10.652;2023-07-16T04:21:52;5.50;;;2.67;;
14394;SDS011;7282;49.204;10.652;2023-07-16T04:24:19;4.60;;;2.63;;
14394;SDS011;7282;49.204;10.652;2023-07-16T04:26:46;3.30;;;2.70;;
14394;SDS011;7282;49.204;10.652;2023-07-16T04:29:12;3.83;;;2.93;;
14394;SDS011;7282;49.204;10.652;2023-07-16T04:31:39;4.67;;;2.60;;
14394;SDS011;7282;49.204;10.652;2023-07-16T04:34:06;2.97;;;2.57;;
14394;SDS011;7282;49.204;10.652;2023-07-16T04:36:33;3.73;;;3.03;;
14394;SDS011;7282;49.204;10.652;2023-07-16T04:38:59;2.77;;;2.57;;
14394;SDS011;7282;49.204;10.652;2023-07-16T04:41:26;4.13;;;2.93;;
14394;SDS011;7282;49.204;10.652;2023-07-16T04:43:53;3.80;;;2.87;;
14394;SDS011;7282;49.204;10.652;2023-07-16T04:46:20;5.00;;;3.07;;
14394;SDS011;7282;49.204;10.652;2023-07-16T04:48:46;3.77;;;3.33;;
14394;SDS011;7282;49.204;10.652;2023-07-16T04:51:13;3.87;;;3.00;;
14394;SDS011;7282;49.204;10.652;2023-07-16T04:53:40;3.17;;;2.60;;
14394;SDS011;7282;49.204;10.652;2023-07-16T04:56:13;3.73;;;2.83;;
14394;SDS011;7282;49.204;10.652;2023-07-16T04:58:40;4.63;;;3.07;;
14394;SDS011;7282;49.204;10.652;2023-07-16T05:01:07;3.07;;;2.60;;
14394;SDS011;7282;49.204;10.652;2023-07-16T05:03:34;5.63;;;2.80;;
14394;SDS011;7282;49.204;10.652;2023-07-16T05:06:01;3.37;;;2.67;;
14394;SDS011;7282;49.204;10.652;2023-07-16T05:08:28;3.57;;;2.80;;
14394;SDS011;7282;49.204;10.652;2023-07-16T05:10:54;4.07;;;2.77;;
14394;SDS011;7282;49.204;10.652;2023-07-16T05:13:21;3.67;;;2.60;;
14394;SDS011;7282;49.204;10.652;2023-07-16T05:15:48;5.30;;;2.47;;
14394;SDS011;7282;49.204;10.652;2023-07-16T05:18:15;4.20;;;2.57;;
14394;SDS011;7282;49.204;10.652;2023-07-16T05:20:42;5.10;;;2.63;;
14394;SDS011;7282;49.204;10.652;2023-07-16T05:23:09;3.23;;;2.70;;
14394;SDS011;7282;49.204;10.652;2023-07-16T05:25:36;2.90;;;2.33;;
14394;SDS011;7282;49.204;10.652;2023-07-16T05:28:03;4.30;;;2.43;;
14394;SDS011;7282;49.204;10.652;2023-07-16T05:30:29;5.70;;;3.00;;
14394;SDS011;7282;49.204;10.652;2023-07-16T05:32:56;4.07;;;2.40;;
14394;SDS011;7282;49.204;10.652;2023-07-16T05:35:23;3.03;;;2.60;;
14394;SDS011;7282;49.204;10.652;2023-07-16T05:37:50;2.87;;;2.50;;
14394;SDS011;7282;49.204;10.652;2023-07-16T05:40:16;3.90;;;2.70;;
14394;SDS011;7282;49.204;10.652;2023-07-16T05:42:43;4.37;;;2.73;;
14394;SDS011;7282;49.204;10.652;2023-07-16T05:45:10;4.77;;;3.00;;
14394;SDS011;7282;49.204;10.652;2023-07-16T05:47:36;4.30;;;2.60;;
14394;SDS011;7282;49.204;10.652;2023-07-16T05:50:03;3.60;;;2.90;;
14394;SDS011;7282;49.204;10.652;2023-07-16T05:52:30;6.67;;;2.57;;
14394;SDS011;7282;49.204;10.652;2023-07-16T05:54:58;5.50;;;2.97;;
14394;SDS011;7282;49.204;10.652;2023-07-16T05:57:24;4.70;;;3.13;;
14394;SDS011;7282;49.204;10.652;2023-07-16T05:59:51;5.73;;;3.30;;
14394;SDS011;7282;49.204;10.652;2023-07-16T06:02:18;3.77;;;2.73;;
14394;SDS011;7282;49.204;10.652;2023-07-16T06:04:44;5.23;;;2.60;;
14394;SDS011;7282;49.204;10.652;2023-07-16T06:07:12;8.17;;;2.87;;
14394;SDS011;7282;49.204;10.652;2023-07-16T06:09:40;7.50;;;2.97;;
14394;SDS011;7282;49.204;10.652;2023-07-16T06:12:06;4.50;;;2.50;;
14394;SDS011;7282;49.204;10.652;2023-07-16T06:14:33;4.83;;;2.80;;
14394;SDS011;7282;49.204;10.652;2023-07-16T06:17:00;3.57;;;2.80;;
14394;SDS011;7282;49.204;10.652;2023-07-16T06:19:27;3.63;;;2.50;;
14394;SDS011;7282;49.204;10.652;2023-07-16T06:21:54;5.77;;;2.93;;
14394;SDS011;7282;49.204;10.652;2023-07-16T06:24:21;7.33;;;2.97;;
14394;SDS011;7282;49.204;10.652;2023-07-16T06:26:47;4.97;;;2.57;;
14394;SDS011;7282;49.204;10.652;2023-07-16T06:29:14;5.00;;;2.90;;
14394;SDS011;7282;49.204;10.652;2023-07-16T06:31:53;5.73;;;2.90;;
14394;SDS011;7282;49.204;10.652;2023-07-16T06:34:12;5.70;;;3.43;;
14394;SDS011;7282;49.204;10.652;2023-07-16T06:36:39;5.77;;;2.57;;
14394;SDS011;7282;49.204;10.652;2023-07-16T06:39:06;3.97;;;2.80;;
14394;SDS011;7282;49.204;10.652;2023-07-16T06:41:32;7.90;;;2.80;;
14394;SDS011;7282;49.204;10.652;2023-07-16T06:43:59;3.77;;;2.53;;
14394;SDS011;7282;49.204;10.652;2023-07-16T06:46:26;6.17;;;2.97;;
14394;SDS011;7282;49.204;10.652;2023-07-16T06:48:52;7.10;;;2.67;;
14394;SDS011;7282;49.204;10.652;2023-07-16T06:51:19;4.80;;;2.50;;
14394;SDS011;7282;49.204;10.652;2023-07-16T06:53:46;4.53;;;2.70;;
14394;SDS011;7282;49.204;10.652;2023-07-16T06:56:13;5.93;;;2.90;;
14394;SDS011;7282;49.204;10.652;2023-07-16T06:58:40;4.03;;;2.67;;
14394;SDS011;7282;49.204;10.652;2023-07-16T07:01:06;5.47;;;3.00;;
14394;SDS011;7282;49.204;10.652;2023-07-16T07:03:33;6.27;;;2.90;;
14394;SDS011;7282;49.204;10.652;2023-07-16T07:06:02;4.67;;;3.00;;
14394;SDS011;7282;49.204;10.652;2023-07-16T07:08:32;4.83;;;2.83;;
14394;SDS011;7282;49.204;10.652;2023-07-16T07:10:59;4.53;;;2.50;;
14394;SDS011;7282;49.204;10.652;2023-07-16T07:13:25;6.90;;;3.00;;
14394;SDS011;7282;49.204;10.652;2023-07-16T07:15:52;3.73;;;2.70;;
14394;SDS011;7282;49.204;10.652;2023-07-16T07:18:19;4.47;;;2.33;;
14394;SDS011;7282;49.204;10.652;2023-07-16T07:20:45;6.30;;;2.87;;
14394;SDS011;7282;49.204;10.652;2023-07-16T07:23:14;6.33;;;3.00;;
14394;SDS011;7282;49.204;10.652;2023-07-16T07:25:41;5.87;;;2.70;;
14394;SDS011;7282;49.204;10.652;2023-07-16T07:28:09;3.10;;;2.80;;
14394;SDS011;7282;49.204;10.652;2023-07-16T07:30:36;9.47;;;3.40;;
14394;SDS011;7282;49.204;10.652;2023-07-16T07:33:03;4.30;;;2.80;;
14394;SDS011;7282;49.204;10.652;2023-07-16T07:35:29;5.00;;;2.80;;
14394;SDS011;7282;49.204;10.652;2023-07-16T07:37:56;5.07;;;2.90;;
14394;SDS011;7282;49.204;10.652;2023-07-16T07:40:23;8.03;;;2.93;;
14394;SDS011;7282;49.204;10.652;2023-07-16T07:42:49;5.70;;;2.93;;
14394;SDS011;7282;49.204;10.652;2023-07-16T07:45:16;3.33;;;2.60;;
14394;SDS011;7282;49.204;10.652;2023-07-16T07:47:43;6.53;;;3.00;;
14394;SDS011;7282;49.204;10.652;2023-07-16T07:50:10;4.93;;;2.83;;
14394;SDS011;7282;49.204;10.652;2023-07-16T07:52:37;3.80;;;2.27;;
14394;SDS011;7282;49.204;10.652;2023-07-16T07:55:04;5.13;;;2.70;;
14394;SDS011;7282;49.204;10.652;2023-07-16T07:57:30;5.53;;;2.90;;
14394;SDS011;7282;49.204;10.652;2023-07-16T07:59:57;4.67;;;2.60;;
14394;SDS011;7282;49.204;10.652;2023-07-16T08:02:24;5.07;;;2.70;;
14394;SDS011;7282;49.204;10.652;2023-07-16T08:04:51;3.97;;;2.70;;
14394;SDS011;7282;49.204;10.652;2023-07-16T08:07:18;4.33;;;3.03;;
14394;SDS011;7282;49.204;10.652;2023-07-16T08:09:45;5.80;;;2.43;;
14394;SDS011;7282;49.204;10.652;2023-07-16T08:12:12;8.93;;;2.70;;
14394;SDS011;7282;49.204;10.652;2023-07-16T08:14:38;5.63;;;2.40;;
14394;SDS011;7282;49.204;10.652;2023-07-16T08:17:05;6.17;;;2.80;;
14394;SDS011;7282;49.204;10.652;2023-07-16T08:19:32;5.43;;;2.70;;
14394;SDS011;7282;49.204;10.652;2023-07-16T08:21:59;5.07;;;2.80;;
14394;SDS011;7282;49.204;10.652;2023-07-16T08:24:25;4.87;;;2.60;;
14394;SDS011;7282;49.204;10.652;2023-07-16T08:26:52;3.10;;;2.47;;
14394;SDS011;7282;49.204;10.652;2023-07-16T08:29:19;4.70;;;2.67;;
14394;SDS011;7282;49.204;10.652;2023-07-16T08:31:45;4.83;;;2.40;;
14394;SDS011;7282;49.204;10.652;2023-07-16T08:34:12;4.10;;;2.70;;
14394;SDS011;7282;49.204;10.652;2023-07-16T08:36:39;5.00;;;2.80;;
14394;SDS011;7282;49.204;10.652;2023-07-16T08:39:06;5.57;;;2.73;;
14394;SDS011;7282;49.204;10.652;2023-07-16T08:41:33;6.23;;;2.87;;
14394;SDS011;7282;49.204;10.652;2023-07-16T08:44:00;7.33;;;2.73;;
14394;SDS011;7282;49.204;10.652;2023-07-16T08:46:27;6.40;;;2.97;;
14394;SDS011;7282;49.204;10.652;2023-07-16T08:48:54;5.07;;;2.57;;
14394;SDS011;7282;49.204;10.652;2023-07-16T08:51:21;4.43;;;2.50;;
14394;SDS011;7282;49.204;10.652;2023-07-16T08:53:49;5.67;;;2.80;;
14394;SDS011;7282;49.204;10.652;2023-07-16T08:56:15;3.80;;;2.40;;
14394;SDS011;7282;49.204;10.652;2023-07-16T08:58:42;5.60;;;2.87;;
14394;SDS011;7282;49.204;10.652;2023-07-16T09:01:11;5.47;;;2.70;;
14394;SDS011;7282;49.204;10.652;2023-07-16T09:03:38;6.80;;;2.90;;
14394;SDS011;7282;49.204;10.652;2023-07-16T09:06:05;4.70;;;3.00;;
14394;SDS011;7282;49.204;10.652;2023-07-16T09:08:32;5.37;;;2.77;;
14394;SDS011;7282;49.204;10.652;2023-07-16T09:10:58;6.50;;;2.67;;
14394;SDS011;7282;49.204;10.652;2023-07-16T09:13:25;2.53;;;2.27;;
14394;SDS011;7282;49.204;10.652;2023-07-16T09:15:54;5.70;;;2.50;;
14394;SDS011;7282;49.204;10.652;2023-07-16T09:18:21;4.67;;;2.70;;
14394;SDS011;7282;49.204;10.652;2023-07-16T09:20:53;5.23;;;2.70;;
14394;SDS011;7282;49.204;10.652;2023-07-16T09:23:17;5.00;;;2.50;;
14394;SDS011;7282;49.204;10.652;2023-07-16T09:25:44;5.80;;;2.63;;
14394;SDS011;7282;49.204;10.652;2023-07-16T09:28:11;5.17;;;2.60;;
14394;SDS011;7282;49.204;10.652;2023-07-16T09:30:38;3.27;;;2.17;;
14394;SDS011;7282;49.204;10.652;2023-07-16T09:33:12;5.03;;;2.73;;
14394;SDS011;7282;49.204;10.652;2023-07-16T09:35:39;5.50;;;2.70;;
14394;SDS011;7282;49.204;10.652;2023-07-16T09:38:11;3.77;;;2.57;;
14394;SDS011;7282;49.204;10.652;2023-07-16T09:40:38;4.30;;;2.20;;
14394;SDS011;7282;49.204;10.652;2023-07-16T09:43:06;6.57;;;2.90;;
14394;SDS011;7282;49.204;10.652;2023-07-16T09:45:33;5.57;;;2.50;;
14394;SDS011;7282;49.204;10.652;2023-07-16T09:48:00;4.33;;;2.50;;
14394;SDS011;7282;49.204;10.652;2023-07-16T09:50:30;4.40;;;2.33;;
14394;SDS011;7282;49.204;10.652;2023-07-16T09:52:58;3.80;;;2.33;;
14394;SDS011;7282;49.204;10.652;2023-07-16T09:55:24;5.73;;;2.50;;
14394;SDS011;7282;49.204;10.652;2023-07-16T09:57:53;4.40;;;2.30;;
14394;SDS011;7282;49.204;10.652;2023-07-16T10:00:20;4.53;;;2.60;;
14394;SDS011;7282;49.204;10.652;2023-07-16T10:02:47;4.13;;;2.40;;
14394;SDS011;7282;49.204;10.652;2023-07-16T10:05:18;7.50;;;2.60;;
14394;SDS011;7282;49.204;10.652;2023-07-16T10:07:51;4.97;;;2.30;;
14394;SDS011;7282;49.204;10.652;2023-07-16T10:10:18;4.63;;;2.37;;
14394;SDS011;7282;49.204;10.652;2023-07-16T10:13:00;5.20;;;2.70;;
14394;SDS011;7282;49.204;10.652;2023-07-16T10:15:26;3.20;;;2.10;;
14394;SDS011;7282;49.204;10.652;2023-07-16T10:17:54;4.57;;;2.30;;
14394;SDS011;7282;49.204;10.652;2023-07-16T10:20:30;3.57;;;2.17;;
14394;SDS011;7282;49.204;10.652;2023-07-16T10:22:57;4.30;;;2.23;;
14394;SDS011;7282;49.204;10.652;2023-07-16T10:25:25;4.53;;;2.50;;
14394;SDS011;7282;49.204;10.652;2023-07-16T10:27:52;7.10;;;2.60;;
14394;SDS011;7282;49.204;10.652;2023-07-16T10:30:19;3.83;;;2.40;;
14394;SDS011;7282;49.204;10.652;2023-07-16T10:32:46;3.77;;;2.30;;
14394;SDS011;7282;49.204;10.652;2023-07-16T10:35:14;3.30;;;2.40;;
14394;SDS011;7282;49.204;10.652;2023-07-16T10:37:40;5.70;;;2.30;;
14394;SDS011;7282;49.204;10.652;2023-07-16T10:40:11;4.17;;;2.03;;
14394;SDS011;7282;49.204;10.652;2023-07-16T10:42:39;4.60;;;2.10;;
14394;SDS011;7282;49.204;10.652;2023-07-16T10:45:06;2.80;;;2.20;;
14394;SDS011;7282;49.204;10.652;2023-07-16T10:47:34;4.23;;;2.40;;
14394;SDS011;7282;49.204;10.652;2023-07-16T10:50:09;3.73;;;2.47;;
14394;SDS011;7282;49.204;10.652;2023-07-16T10:52:32;4.47;;;2.67;;
14394;SDS011;7282;49.204;10.652;2023-07-16T10:54:59;5.03;;;2.30;;
14394;SDS011;7282;49.204;10.652;2023-07-16T10:57:26;4.70;;;2.23;;
14394;SDS011;7282;49.204;10.652;2023-07-16T10:59:54;3.13;;;2.10;;
14394;SDS011;7282;49.204;10.652;2023-07-16T11:02:21;3.50;;;2.30;;
14394;SDS011;7282;49.204;10.652;2023-07-16T11:04:48;3.40;;;2.20;;
14394;SDS011;7282;49.204;10.652;2023-07-16T11:07:15;4.13;;;2.33;;
14394;SDS011;7282;49.204;10.652;2023-07-16T11:09:42;4.33;;;2.23;;
14394;SDS011;7282;49.204;10.652;2023-07-16T11:12:10;3.93;;;2.20;;
14394;SDS011;7282;49.204;10.652;2023-07-16T11:14:37;4.37;;;2.20;;
14394;SDS011;7282;49.204;10.652;2023-07-16T11:17:05;5.07;;;2.70;;
14394;SDS011;7282;49.204;10.652;2023-07-16T11:19:36;4.57;;;2.47;;
14394;SDS011;7282;49.204;10.652;2023-07-16T11:22:03;3.50;;;2.50;;
14394;SDS011;7282;49.204;10.652;2023-07-16T11:24:41;4.77;;;2.43;;
14394;SDS011;7282;49.204;10.652;2023-07-16T11:27:06;3.67;;;2.47;;
14394;SDS011;7282;49.204;10.652;2023-07-16T11:29:36;7.97;;;2.67;;
14394;SDS011;7282;49.204;10.652;2023-07-16T11:32:03;4.23;;;2.30;;
14394;SDS011;7282;49.204;10.652;2023-07-16T11:34:29;6.80;;;2.67;;
14394;SDS011;7282;49.204;10.652;2023-07-16T11:37:06;4.40;;;2.30;;
14394;SDS011;7282;49.204;10.652;2023-07-16T11:39:27;2.87;;;2.10;;
14394;SDS011;7282;49.204;10.652;2023-07-16T11:41:54;3.40;;;2.47;;
14394;SDS011;7282;49.204;10.652;2023-07-16T11:44:21;2.93;;;2.30;;
14394;SDS011;7282;49.204;10.652;2023-07-16T11:46:48;4.93;;;2.40;;
14394;SDS011;7282;49.204;10.652;2023-07-16T11:49:15;3.30;;;2.00;;
14394;SDS011;7282;49.204;10.652;2023-07-16T11:51:41;4.67;;;2.20;;
14394;SDS011;7282;49.204;10.652;2023-07-16T11:54:10;4.30;;;2.30;;
14394;SDS011;7282;49.204;10.652;2023-07-16T11:56:37;4.33;;;2.47;;
14394;SDS011;7282;49.204;10.652;2023-07-16T11:59:04;4.63;;;2.37;;
14394;SDS011;7282;49.204;10.652;2023-07-16T12:01:31;5.07;;;2.60;;
14394;SDS011;7282;49.204;10.652;2023-07-16T12:03:57;3.43;;;2.27;;
14394;SDS011;7282;49.204;10.652;2023-07-16T12:06:24;3.47;;;2.23;;
14394;SDS011;7282;49.204;10.652;2023-07-16T12:08:51;4.83;;;2.40;;
14394;SDS011;7282;49.204;10.652;2023-07-16T12:11:17;4.50;;;2.47;;
14394;SDS011;7282;49.204;10.652;2023-07-16T12:13:44;7.60;;;2.63;;
14394;SDS011;7282;49.204;10.652;2023-07-16T12:16:11;3.77;;;2.63;;
14394;SDS011;7282;49.204;10.652;2023-07-16T12:18:37;2.27;;;1.97;;
14394;SDS011;7282;49.204;10.652;2023-07-16T12:21:04;3.40;;;2.20;;
14394;SDS011;7282;49.204;10.652;2023-07-16T12:23:32;4.63;;;2.40;;
14394;SDS011;7282;49.204;10.652;2023-07-16T12:25:58;3.30;;;2.27;;
14394;SDS011;7282;49.204;10.652;2023-07-16T12:28:25;3.77;;;2.30;;
14394;SDS011;7282;49.204;10.652;2023-07-16T12:30:52;3.47;;;2.50;;
14394;SDS011;7282;49.204;10.652;2023-07-16T12:33:18;3.17;;;2.10;;
14394;SDS011;7282;49.204;10.652;2023-07-16T12:35:45;2.33;;;2.13;;
14394;SDS011;7282;49.204;10.652;2023-07-16T12:38:13;4.60;;;2.30;;
14394;SDS011;7282;49.204;10.652;2023-07-16T12:40:40;6.63;;;2.60;;
14394;SDS011;7282;49.204;10.652;2023-07-16T12:43:06;3.47;;;2.00;;
14394;SDS011;7282;49.204;10.652;2023-07-16T12:45:33;2.30;;;2.10;;
14394;SDS011;7282;49.204;10.652;2023-07-16T12:48:00;2.93;;;2.07;;
14394;SDS011;7282;49.204;10.652;2023-07-16T12:50:27;3.70;;;2.43;;
14394;SDS011;7282;49.204;10.652;2023-07-16T12:52:55;2.73;;;2.13;;
14394;SDS011;7282;49.204;10.652;2023-07-16T12:55:21;3.23;;;2.53;;
14394;SDS011;7282;49.204;10.652;2023-07-16T12:57:49;2.40;;;1.97;;
14394;SDS011;7282;49.204;10.652;2023-07-16T13:00:16;2.73;;;2.20;;
14394;SDS011;7282;49.204;10.652;2023-07-16T13:02:43;3.90;;;2.50;;
14394;SDS011;7282;49.204;10.652;2023-07-16T13:05:09;3.63;;;2.37;;
14394;SDS011;7282;49.204;10.652;2023-07-16T13:07:36;4.13;;;2.27;;
14394;SDS011;7282;49.204;10.652;2023-07-16T13:10:03;3.07;;;2.13;;
14394;SDS011;7282;49.204;10.652;2023-07-16T13:12:30;2.97;;;2.17;;
14394;SDS011;7282;49.204;10.652;2023-07-16T13:14:57;2.60;;;2.00;;
14394;SDS011;7282;49.204;10.652;2023-07-16T13:17:23;2.37;;;2.10;;
14394;SDS011;7282;49.204;10.652;2023-07-16T13:19:50;2.50;;;2.30;;
14394;SDS011;7282;49.204;10.652;2023-07-16T13:22:17;4.27;;;2.40;;
14394;SDS011;7282;49.204;10.652;2023-07-16T13:24:43;4.77;;;2.23;;
14394;SDS011;7282;49.204;10.652;2023-07-16T13:27:19;3.70;;;2.10;;
14394;SDS011;7282;49.204;10.652;2023-07-16T13:29:39;3.20;;;2.20;;
14394;SDS011;7282;49.204;10.652;2023-07-16T13:32:06;2.43;;;2.20;;
14394;SDS011;7282;49.204;10.652;2023-07-16T13:34:33;3.43;;;2.20;;
14394;SDS011;7282;49.204;10.652;2023-07-16T13:36:59;2.33;;;2.10;;
14394;SDS011;7282;49.204;10.652;2023-07-16T13:39:26;4.23;;;2.17;;
14394;SDS011;7282;49.204;10.652;2023-07-16T13:41:53;3.43;;;2.17;;
14394;SDS011;7282;49.204;10.652;2023-07-16T13:44:19;3.73;;;1.90;;
14394;SDS011;7282;49.204;10.652;2023-07-16T13:46:46;4.70;;;2.33;;
14394;SDS011;7282;49.204;10.652;2023-07-16T13:49:13;2.50;;;2.30;;
14394;SDS011;7282;49.204;10.652;2023-07-16T13:51:40;2.83;;;2.00;;
14394;SDS011;7282;49.204;10.652;2023-07-16T13:54:10;4.13;;;2.30;;
14394;SDS011;7282;49.204;10.652;2023-07-16T13:56:37;3.87;;;2.40;;
14394;SDS011;7282;49.204;10.652;2023-07-16T13:59:04;3.07;;;1.97;;
14394;SDS011;7282;49.204;10.652;2023-07-16T14:01:30;2.20;;;2.00;;
14394;SDS011;7282;49.204;10.652;2023-07-16T14:03:57;2.87;;;1.93;;
14394;SDS011;7282;49.204;10.652;2023-07-16T14:06:24;3.47;;;2.40;;
14394;SDS011;7282;49.204;10.652;2023-07-16T14:08:50;2.97;;;2.20;;
14394;SDS011;7282;49.204;10.652;2023-07-16T14:11:17;5.40;;;2.30;;
14394;SDS011;7282;49.204;10.652;2023-07-16T14:13:44;2.63;;;2.20;;
14394;SDS011;7282;49.204;10.652;2023-07-16T14:16:11;3.33;;;2.20;;
14394;SDS011;7282;49.204;10.652;2023-07-16T14:18:37;3.53;;;2.20;;
14394;SDS011;7282;49.204;10.652;2023-07-16T14:21:04;2.63;;;2.10;;
14394;SDS011;7282;49.204;10.652;2023-07-16T14:23:31;2.63;;;2.10;;
14394;SDS011;7282;49.204;10.652;2023-07-16T14:25:58;3.30;;;2.00;;
14394;SDS011;7282;49.204;10.652;2023-07-16T14:28:24;3.37;;;2.30;;
14394;SDS011;7282;49.204;10.652;2023-07-16T14:30:51;2.23;;;2.03;;
14394;SDS011;7282;49.204;10.652;2023-07-16T14:33:18;3.00;;;2.30;;
14394;SDS011;7282;49.204;10.652;2023-07-16T14:35:44;2.47;;;2.27;;
14394;SDS011;7282;49.204;10.652;2023-07-16T14:38:11;3.70;;;1.93;;
14394;SDS011;7282;49.204;10.652;2023-07-16T14:40:38;1.93;;;1.83;;
14394;SDS011;7282;49.204;10.652;2023-07-16T14:43:04;2.70;;;2.03;;
14394;SDS011;7282;49.204;10.652;2023-07-16T14:45:34;2.93;;;2.23;;
14394;SDS011;7282;49.204;10.652;2023-07-16T14:48:01;2.53;;;2.13;;
14394;SDS011;7282;49.204;10.652;2023-07-16T14:50:28;3.57;;;2.30;;
14394;SDS011;7282;49.204;10.652;2023-07-16T14:52:54;3.57;;;1.93;;